createdAt,value
2023-05-10T00:00:58.232Z,50.16
2023-05-10T00:03:25.559Z,50.93
2023-05-10T00:05:52.804Z,49.97
2023-05-10T00:08:20.071Z,45.88
2023-05-10T00:10:47.139Z,48.71
2023-05-10T00:13:14.477Z,47.05
2023-05-10T00:15:41.618Z,47.16
2023-05-10T00:18:08.980Z,46.39
2023-05-10T00:20:36.227Z,46.73
2023-05-10T00:23:03.381Z,47.01
2023-05-10T00:25:30.426Z,47.30
2023-05-10T00:27:58.354Z,48.89
2023-05-10T00:30:25.678Z,49.18
2023-05-10T00:32:53.102Z,49.43
2023-05-10T00:35:20.517Z,48.61
2023-05-10T00:37:48.910Z,49.41
2023-05-10T00:40:16.313Z,49.52
2023-05-10T00:42:47.699Z,49.95
2023-05-10T00:45:14.864Z,51.10
2023-05-10T00:47:42.117Z,51.90
2023-05-10T00:50:10.365Z,52.54
2023-05-10T00:52:37.555Z,53.10
2023-05-10T00:55:23.891Z,53.21
2023-05-10T00:57:51.455Z,53.57
2023-05-10T01:00:19.743Z,53.33
2023-05-10T01:02:47.862Z,53.72
2023-05-10T01:05:15.181Z,54.40
2023-05-10T01:07:42.390Z,55.87
2023-05-10T01:10:11.643Z,56.70
2023-05-10T01:12:41.813Z,57.14
2023-05-10T01:15:11.965Z,51.99
2023-05-10T01:17:42.024Z,48.54
2023-05-10T01:20:11.303Z,46.67
2023-05-10T01:22:56.779Z,51.13
2023-05-10T01:25:48.696Z,52.85
2023-05-10T01:28:46.668Z,51.51
2023-05-10T01:31:44.424Z,51.54
2023-05-10T01:34:19.813Z,53.41
2023-05-10T01:36:52.377Z,53.96
2023-05-10T01:39:31.440Z,49.72
2023-05-10T01:42:09.321Z,51.15
2023-05-10T01:44:51.531Z,51.46
2023-05-10T01:47:26.628Z,51.90
2023-05-10T01:49:56.459Z,53.68
2023-05-10T01:52:51.167Z,53.28
2023-05-10T01:55:22.146Z,54.76
2023-05-10T01:58:00.057Z,52.98
2023-05-10T02:00:28.326Z,53.36
2023-05-10T02:02:56.536Z,47.40
2023-05-10T02:05:25.358Z,46.76
2023-05-10T02:07:54.116Z,50.04
2023-05-10T02:10:22.044Z,51.00
2023-05-10T02:12:50.527Z,49.20
2023-05-10T02:15:22.420Z,50.23
2023-05-10T02:17:50.849Z,49.45
2023-05-10T02:20:20.284Z,51.78
2023-05-10T02:22:51.818Z,51.40
2023-05-10T02:25:20.480Z,53.35
2023-05-10T02:27:49.408Z,54.92
2023-05-10T02:30:18.088Z,55.46
2023-05-10T02:32:46.204Z,56.27
2023-05-10T02:35:13.985Z,56.72
2023-05-10T02:37:43.098Z,56.37
2023-05-10T02:40:12.129Z,55.50
2023-05-10T02:42:43.436Z,55.00
2023-05-10T02:45:14.543Z,56.10
2023-05-10T02:47:44.846Z,56.71
2023-05-10T02:50:12.469Z,58.09
2023-05-10T02:52:48.799Z,58.99
2023-05-10T02:55:17.982Z,59.03
2023-05-10T02:57:52.056Z,59.29
2023-05-10T03:00:19.513Z,59.38
2023-05-10T03:02:46.613Z,59.10
2023-05-10T03:05:13.721Z,60.07
2023-05-10T03:07:40.903Z,60.87
2023-05-10T03:10:09.017Z,60.54
2023-05-10T03:12:56.890Z,61.18
2023-05-10T03:15:30.296Z,59.97
2023-05-10T03:18:10.748Z,60.87
2023-05-10T03:20:49.530Z,60.19
2023-05-10T03:23:25.416Z,60.35
2023-05-10T03:25:53.463Z,60.09
2023-05-10T03:28:22.190Z,60.00
2023-05-10T03:30:50.870Z,58.04
2023-05-10T03:33:18.085Z,58.04
2023-05-10T03:35:47.397Z,58.28
2023-05-10T03:38:15.484Z,58.17
2023-05-10T03:40:42.571Z,58.52
2023-05-10T03:43:09.689Z,59.52
2023-05-10T03:45:37.371Z,59.95
2023-05-10T03:48:05.252Z,60.05
2023-05-10T03:50:32.469Z,60.17
2023-05-10T03:52:59.551Z,59.17
2023-05-10T03:55:28.192Z,56.67
2023-05-10T03:57:55.361Z,57.75
2023-05-10T04:00:23.505Z,56.33
2023-05-10T04:02:54.609Z,56.10
2023-05-10T04:05:21.805Z,53.35
2023-05-10T04:07:50.402Z,49.40
2023-05-10T04:10:18.098Z,49.31
2023-05-10T04:12:47.104Z,50.37
2023-05-10T04:15:14.488Z,44.92
2023-05-10T04:17:41.718Z,43.96
2023-05-10T04:20:09.521Z,44.79
2023-05-10T04:22:36.902Z,43.88
2023-05-10T04:25:04.269Z,46.18
2023-05-10T04:27:32.217Z,43.55
2023-05-10T04:29:59.440Z,45.73
2023-05-10T04:32:26.594Z,43.89
2023-05-10T04:34:54.192Z,42.91
2023-05-10T04:37:22.485Z,38.25
2023-05-10T04:39:49.591Z,36.82
2023-05-10T04:42:16.758Z,37.03
2023-05-10T04:44:44.732Z,38.83
2023-05-10T04:47:12.936Z,38.97
2023-05-10T04:49:40.289Z,36.81
2023-05-10T04:52:07.408Z,36.98
2023-05-10T04:54:35.609Z,35.61
2023-05-10T04:57:02.658Z,35.12
2023-05-10T04:59:29.708Z,34.92
2023-05-10T05:01:56.849Z,34.52
2023-05-10T05:04:25.163Z,33.78
2023-05-10T05:06:53.929Z,34.50
2023-05-10T05:09:21.376Z,34.28
2023-05-10T05:11:48.558Z,36.63
2023-05-10T05:14:15.698Z,36.72
2023-05-10T05:16:42.855Z,37.35
2023-05-10T05:19:09.984Z,34.75
2023-05-10T05:21:37.276Z,33.80
2023-05-10T05:24:04.858Z,32.32
2023-05-10T05:26:31.964Z,32.18
2023-05-10T05:28:59.025Z,32.96
2023-05-10T05:31:26.203Z,31.76
2023-05-10T05:33:53.473Z,32.76
2023-05-10T05:36:20.582Z,31.11
2023-05-10T05:38:47.706Z,31.05
2023-05-10T05:41:14.956Z,29.48
2023-05-10T05:43:42.048Z,29.76
2023-05-10T05:46:09.206Z,29.80
2023-05-10T05:48:36.552Z,29.57
2023-05-10T05:51:05.147Z,31.15
2023-05-10T05:53:33.684Z,29.75
2023-05-10T05:56:00.794Z,29.57
2023-05-10T05:58:28.034Z,29.06
2023-05-10T06:00:55.221Z,29.06
2023-05-10T06:03:22.525Z,29.12
2023-05-10T06:05:49.806Z,29.27
2023-05-10T06:08:16.899Z,28.99
2023-05-10T06:10:44.286Z,29.99
2023-05-10T06:13:11.843Z,30.47
2023-05-10T06:15:39.421Z,30.06
2023-05-10T06:18:07.250Z,28.38
2023-05-10T06:20:34.513Z,28.17
2023-05-10T06:23:01.761Z,29.74
2023-05-10T06:25:29.086Z,28.16
2023-05-10T06:27:58.871Z,29.12
2023-05-10T06:30:29.875Z,28.77
2023-05-10T06:32:58.242Z,28.89
2023-05-10T06:35:25.786Z,28.94
2023-05-10T06:37:53.356Z,27.21
2023-05-10T06:40:20.777Z,27.63
2023-05-10T06:42:49.139Z,27.60
2023-05-10T06:45:17.125Z,28.83
2023-05-10T06:47:44.762Z,28.04
2023-05-10T06:50:12.831Z,26.52
2023-05-10T06:52:40.339Z,26.01
2023-05-10T06:55:09.427Z,26.35
2023-05-10T06:57:36.592Z,27.36
2023-05-10T07:00:08.017Z,26.88
2023-05-10T07:02:35.425Z,26.79
2023-05-10T07:05:03.649Z,28.07
2023-05-10T07:07:32.656Z,27.65
2023-05-10T07:09:59.898Z,26.73
2023-05-10T07:12:27.220Z,25.85
2023-05-10T07:14:54.558Z,26.52
2023-05-10T07:17:21.683Z,26.90
2023-05-10T07:19:48.827Z,27.52
2023-05-10T07:22:16.558Z,27.20
2023-05-10T07:24:43.927Z,26.71
2023-05-10T07:27:11.018Z,28.13
2023-05-10T07:29:38.611Z,27.06
2023-05-10T07:32:06.973Z,26.63
2023-05-10T07:34:34.189Z,27.29
2023-05-10T07:37:01.913Z,28.21
2023-05-10T07:39:29.126Z,27.55
2023-05-10T07:41:56.909Z,27.11
2023-05-10T07:44:24.493Z,28.93
2023-05-10T07:46:51.863Z,27.95
2023-05-10T07:49:19.079Z,26.94
2023-05-10T07:51:46.224Z,27.55
2023-05-10T07:54:13.838Z,27.43
2023-05-10T07:56:46.064Z,27.42
2023-05-10T07:59:17.023Z,27.56
2023-05-10T08:01:44.639Z,26.41
2023-05-10T08:04:12.699Z,26.76
2023-05-10T08:06:40.751Z,26.23
2023-05-10T08:09:08.106Z,27.44
2023-05-10T08:11:35.471Z,26.96
2023-05-10T08:14:02.840Z,26.60
2023-05-10T08:16:30.167Z,27.57
2023-05-10T08:18:57.493Z,26.24
2023-05-10T08:21:24.695Z,26.27
2023-05-10T08:23:51.904Z,26.32
2023-05-10T08:26:19.014Z,26.51
2023-05-10T08:28:46.120Z,26.57
2023-05-10T08:31:13.289Z,26.28
2023-05-10T08:33:42.168Z,25.40
2023-05-10T08:36:10.210Z,25.26
2023-05-10T08:38:38.684Z,25.34
2023-05-10T08:41:07.244Z,24.64
2023-05-10T08:43:37.733Z,24.53
2023-05-10T08:46:06.599Z,24.23
2023-05-10T08:48:35.906Z,24.43
2023-05-10T08:51:04.825Z,24.10
2023-05-10T08:53:36.480Z,24.15
2023-05-10T08:56:04.758Z,23.92
2023-05-10T08:58:32.239Z,23.74
2023-05-10T09:01:00.483Z,24.47
2023-05-10T09:03:27.860Z,24.84
2023-05-10T09:05:56.914Z,24.36
2023-05-10T09:08:27.900Z,24.00
2023-05-10T09:10:58.151Z,24.15
2023-05-10T09:13:26.199Z,23.17
2023-05-10T09:15:54.824Z,23.86
2023-05-10T09:18:22.002Z,23.96
2023-05-10T09:20:50.292Z,24.07
2023-05-10T09:23:17.529Z,25.06
2023-05-10T09:25:44.557Z,23.69
2023-05-10T09:28:12.951Z,24.25
2023-05-10T09:30:40.507Z,24.43
2023-05-10T09:33:08.133Z,25.33
2023-05-10T09:35:35.427Z,24.16
2023-05-10T09:38:05.299Z,24.23
2023-05-10T09:40:33.034Z,24.48
2023-05-10T09:43:07.009Z,24.11
2023-05-10T09:45:38.298Z,24.67
2023-05-10T09:48:07.167Z,24.13
2023-05-10T09:50:35.379Z,23.79
2023-05-10T09:53:04.956Z,23.22
2023-05-10T09:55:45.904Z,22.89
2023-05-10T09:58:15.346Z,23.20
2023-05-10T10:00:53.266Z,24.02
2023-05-10T10:03:23.844Z,23.18
2023-05-10T10:05:51.463Z,23.83
2023-05-10T10:08:18.808Z,23.99
2023-05-10T10:10:47.261Z,24.18
2023-05-10T10:13:16.826Z,24.02
2023-05-10T10:15:45.675Z,23.64
2023-05-10T10:18:18.417Z,24.31
2023-05-10T10:20:46.728Z,24.05
2023-05-10T10:23:15.872Z,23.82
2023-05-10T10:25:46.370Z,24.56
2023-05-10T10:28:48.449Z,24.04
2023-05-10T10:31:32.527Z,24.55
2023-05-10T10:34:05.013Z,24.22
2023-05-10T10:36:34.349Z,24.28
2023-05-10T10:39:03.971Z,23.76
2023-05-10T10:41:35.088Z,23.18
2023-05-10T10:44:24.716Z,23.19
2023-05-10T10:47:25.253Z,23.90
2023-05-10T10:49:55.660Z,23.83
2023-05-10T10:52:31.074Z,23.96
2023-05-10T10:55:07.276Z,23.96
2023-05-10T10:58:01.183Z,23.37
2023-05-10T11:00:37.414Z,23.31
2023-05-10T11:03:09.604Z,23.41
2023-05-10T11:05:44.642Z,23.65
2023-05-10T11:08:17.793Z,24.05
2023-05-10T11:11:09.994Z,23.53
2023-05-10T11:13:46.670Z,23.38
2023-05-10T11:16:16.874Z,24.46
2023-05-10T11:19:00.991Z,24.13
2023-05-10T11:21:28.273Z,23.81
2023-05-10T11:23:57.754Z,24.40
2023-05-10T11:26:36.303Z,23.17
2023-05-10T11:29:05.577Z,24.12
2023-05-10T11:31:32.973Z,24.86
2023-05-10T11:34:02.873Z,23.88
2023-05-10T11:36:37.450Z,24.19
2023-05-10T11:39:06.419Z,24.26
2023-05-10T11:41:34.009Z,24.11
2023-05-10T11:44:01.176Z,24.04
2023-05-10T11:46:29.628Z,23.85
2023-05-10T11:49:02.951Z,23.32
2023-05-10T11:51:30.315Z,24.03
2023-05-10T11:53:58.255Z,24.63
2023-05-10T11:56:27.370Z,23.43
2023-05-10T11:58:57.051Z,24.32
2023-05-10T12:01:26.234Z,23.59
2023-05-10T12:03:55.321Z,23.70
2023-05-10T12:06:22.973Z,24.06
2023-05-10T12:08:54.786Z,24.44
2023-05-10T12:11:26.638Z,23.82
2023-05-10T12:13:54.823Z,23.65
2023-05-10T12:16:26.738Z,24.37
2023-05-10T12:18:56.916Z,24.70
2023-05-10T12:21:25.527Z,24.59
2023-05-10T12:23:59.991Z,24.45
2023-05-10T12:26:30.145Z,23.78
2023-05-10T12:29:14.102Z,23.78
2023-05-10T12:31:51.576Z,23.91
2023-05-10T12:34:32.653Z,25.23
2023-05-10T12:37:00.052Z,25.40
2023-05-10T12:39:27.780Z,25.04
2023-05-10T12:41:54.897Z,25.18
2023-05-10T12:44:22.046Z,24.48
2023-05-10T12:46:49.165Z,24.93
2023-05-10T12:49:16.471Z,25.76
2023-05-10T12:51:43.840Z,25.37
2023-05-10T12:54:10.973Z,24.39
2023-05-10T12:56:38.214Z,24.96
2023-05-10T12:59:05.728Z,24.91
2023-05-10T13:01:32.942Z,25.74
2023-05-10T13:04:01.233Z,25.49
2023-05-10T13:06:28.366Z,25.41
2023-05-10T13:08:55.596Z,25.27
2023-05-10T13:11:22.774Z,25.79
2023-05-10T13:13:49.872Z,26.41
2023-05-10T13:16:17.362Z,25.77
2023-05-10T13:18:44.553Z,25.83
2023-05-10T13:21:12.395Z,25.88
2023-05-10T13:23:39.484Z,26.07
2023-05-10T13:26:06.625Z,26.46
2023-05-10T13:28:33.703Z,26.22
2023-05-10T13:31:01.168Z,26.62
2023-05-10T13:33:28.328Z,26.63
2023-05-10T13:35:55.922Z,26.83
2023-05-10T13:38:23.165Z,25.63
2023-05-10T13:40:53.767Z,25.81
2023-05-10T13:43:21.214Z,25.61
2023-05-10T13:45:48.513Z,25.80
2023-05-10T13:48:15.757Z,26.04
2023-05-10T13:50:44.322Z,26.17
2023-05-10T13:53:11.408Z,26.45
2023-05-10T13:55:38.520Z,26.30
2023-05-10T13:58:05.732Z,26.10
2023-05-10T14:00:33.041Z,26.20
2023-05-10T14:03:00.300Z,26.04
2023-05-10T14:05:28.032Z,25.92
2023-05-10T14:07:55.380Z,26.14
2023-05-10T14:10:22.724Z,26.31
2023-05-10T14:12:51.350Z,26.26
2023-05-10T14:15:18.817Z,26.18
2023-05-10T14:17:46.247Z,26.59
2023-05-10T14:20:13.384Z,26.73
2023-05-10T14:22:41.543Z,26.97
2023-05-10T14:25:09.595Z,26.91
2023-05-10T14:27:36.723Z,26.80
2023-05-10T14:30:04.143Z,26.96
2023-05-10T14:32:33.320Z,27.07
2023-05-10T14:35:00.865Z,26.87
2023-05-10T14:37:28.093Z,26.73
2023-05-10T14:39:55.237Z,27.26
2023-05-10T14:42:22.442Z,27.11
2023-05-10T14:44:49.784Z,27.27
2023-05-10T14:47:16.887Z,27.09
2023-05-10T14:49:43.972Z,27.08
2023-05-10T14:52:13.412Z,27.48
2023-05-10T14:54:41.358Z,27.28
2023-05-10T14:57:08.528Z,27.48
2023-05-10T14:59:35.768Z,27.44
2023-05-10T15:02:04.265Z,27.00
2023-05-10T15:04:31.981Z,26.65
2023-05-10T15:07:00.565Z,27.22
2023-05-10T15:09:28.838Z,26.86
2023-05-10T15:11:56.876Z,27.23
2023-05-10T15:14:24.404Z,27.73
2023-05-10T15:16:51.516Z,27.78
2023-05-10T15:19:18.682Z,27.87
2023-05-10T15:21:46.151Z,27.48
2023-05-10T15:24:13.369Z,27.32
2023-05-10T15:26:40.495Z,28.20
2023-05-10T15:29:07.649Z,28.23
2023-05-10T15:31:37.689Z,28.40
2023-05-10T15:34:04.925Z,27.97
2023-05-10T15:36:33.218Z,27.61
2023-05-10T15:39:00.611Z,27.57
2023-05-10T15:41:27.907Z,27.91
2023-05-10T15:43:55.222Z,27.79
2023-05-10T15:46:22.688Z,28.16
2023-05-10T15:48:50.005Z,27.90
2023-05-10T15:51:17.153Z,28.20
2023-05-10T15:53:56.481Z,28.10
2023-05-10T15:56:31.436Z,28.09
2023-05-10T15:58:58.590Z,28.44
2023-05-10T16:01:26.153Z,28.60
2023-05-10T16:03:53.319Z,28.49
2023-05-10T16:06:20.497Z,28.57
2023-05-10T16:08:47.722Z,28.84
2023-05-10T16:11:14.775Z,29.08
2023-05-10T16:13:41.833Z,29.06
2023-05-10T16:16:09.387Z,28.66
2023-05-10T16:18:36.910Z,28.41
2023-05-10T16:21:04.468Z,28.50
2023-05-10T16:23:31.671Z,28.89
2023-05-10T16:25:58.869Z,28.94
2023-05-10T16:28:26.091Z,28.80
2023-05-10T16:30:53.371Z,28.63
2023-05-10T16:33:20.832Z,28.63
2023-05-10T16:35:47.980Z,28.64
2023-05-10T16:38:15.203Z,28.46
2023-05-10T16:40:42.377Z,28.75
2023-05-10T16:43:09.555Z,31.20
2023-05-10T16:45:36.771Z,29.54
2023-05-10T16:48:04.104Z,28.84
2023-05-10T16:50:31.511Z,30.44
2023-05-10T16:52:58.855Z,30.41
2023-05-10T16:55:26.534Z,29.93
2023-05-10T16:57:59.762Z,30.78
2023-05-10T17:00:27.563Z,30.93
2023-05-10T17:02:55.098Z,31.06
2023-05-10T17:05:22.935Z,31.63
2023-05-10T17:07:50.604Z,31.10
2023-05-10T17:10:18.156Z,31.61
2023-05-10T17:12:45.897Z,31.36
2023-05-10T17:15:13.348Z,31.84
2023-05-10T17:17:40.684Z,31.74
2023-05-10T17:20:08.599Z,32.11
2023-05-10T17:22:36.047Z,31.88
2023-05-10T17:25:04.290Z,31.43
2023-05-10T17:27:32.244Z,32.24
2023-05-10T17:29:59.743Z,31.80
2023-05-10T17:32:27.220Z,32.19
2023-05-10T17:34:54.457Z,32.65
2023-05-10T17:37:21.844Z,33.33
2023-05-10T17:39:48.997Z,33.51
2023-05-10T17:42:19.128Z,33.94
2023-05-10T17:44:46.411Z,34.45
2023-05-10T17:47:13.534Z,35.20
2023-05-10T17:49:40.872Z,36.02
2023-05-10T17:52:08.181Z,36.96
2023-05-10T17:54:35.533Z,38.36
2023-05-10T17:57:03.730Z,38.81
2023-05-10T17:59:30.958Z,39.35
2023-05-10T18:01:58.155Z,39.37
2023-05-10T18:04:26.146Z,39.77
2023-05-10T18:07:01.194Z,39.87
2023-05-10T18:09:29.232Z,40.37
2023-05-10T18:11:56.586Z,40.23
2023-05-10T18:14:39.042Z,40.42
2023-05-10T18:17:09.260Z,39.67
2023-05-10T18:19:36.637Z,38.21
2023-05-10T18:22:03.732Z,37.58
2023-05-10T18:24:39.013Z,38.03
2023-05-10T18:27:08.968Z,39.27
2023-05-10T18:29:37.125Z,39.79
2023-05-10T18:32:04.664Z,40.68
2023-05-10T18:34:31.847Z,40.40
2023-05-10T18:36:59.722Z,40.48
2023-05-10T18:39:26.927Z,40.55
2023-05-10T18:41:54.122Z,40.64
2023-05-10T18:44:23.295Z,40.17
2023-05-10T18:46:54.118Z,39.82
2023-05-10T18:49:21.586Z,40.03
2023-05-10T18:51:48.788Z,39.72
2023-05-10T18:54:15.878Z,40.03
2023-05-10T18:56:45.309Z,39.90
2023-05-10T18:59:13.125Z,39.93
2023-05-10T19:01:43.403Z,40.27
2023-05-10T19:04:10.570Z,40.99
2023-05-10T19:06:37.670Z,41.23
2023-05-10T19:09:04.989Z,42.08
2023-05-10T19:11:34.488Z,42.17
2023-05-10T19:14:02.673Z,42.25
2023-05-10T19:16:30.561Z,42.37
2023-05-10T19:18:58.149Z,43.31
2023-05-10T19:21:25.450Z,44.51
2023-05-10T19:23:53.712Z,45.20
2023-05-10T19:26:22.113Z,45.74
2023-05-10T19:28:52.783Z,46.68
2023-05-10T19:31:20.449Z,46.38
2023-05-10T19:33:47.707Z,46.61
2023-05-10T19:36:15.083Z,47.53
2023-05-10T19:38:42.283Z,48.04
2023-05-10T19:41:09.459Z,48.49
2023-05-10T19:43:39.908Z,49.03
2023-05-10T19:46:07.127Z,48.83
2023-05-10T19:48:34.199Z,48.98
2023-05-10T19:51:07.831Z,47.68
2023-05-10T19:53:36.663Z,47.65
2023-05-10T19:56:05.458Z,49.02
2023-05-10T19:58:34.149Z,47.90
2023-05-10T20:01:01.747Z,47.22
2023-05-10T20:03:29.276Z,48.83
2023-05-10T20:05:56.425Z,49.10
2023-05-10T20:08:23.499Z,48.09
2023-05-10T20:10:50.832Z,49.07
2023-05-10T20:13:18.092Z,49.60
2023-05-10T20:15:46.238Z,50.39
2023-05-10T20:18:13.415Z,50.22
2023-05-10T20:20:40.829Z,50.08
2023-05-10T20:23:07.935Z,49.81
2023-05-10T20:25:35.638Z,47.37
2023-05-10T20:28:03.104Z,48.14
2023-05-10T20:30:30.188Z,48.60
2023-05-10T20:32:57.425Z,48.87
2023-05-10T20:35:24.552Z,48.96
2023-05-10T20:37:51.671Z,49.53
2023-05-10T20:40:19.059Z,49.74
2023-05-10T20:42:47.696Z,49.27
2023-05-10T20:45:16.035Z,49.46
2023-05-10T20:47:43.344Z,49.82
2023-05-10T20:50:11.517Z,50.23
2023-05-10T20:52:38.630Z,51.63
2023-05-10T20:55:06.476Z,50.91
2023-05-10T20:57:33.606Z,51.10
2023-05-10T21:00:00.842Z,50.85
2023-05-10T21:02:29.137Z,48.77
2023-05-10T21:04:57.872Z,47.63
2023-05-10T21:07:25.558Z,46.64
2023-05-10T21:09:52.745Z,46.31
2023-05-10T21:12:19.938Z,46.29
2023-05-10T21:14:47.906Z,48.09
2023-05-10T21:17:15.102Z,49.13
2023-05-10T21:19:44.106Z,49.41
2023-05-10T21:22:11.227Z,48.96
2023-05-10T21:24:38.285Z,48.87
2023-05-10T21:27:07.559Z,47.94
2023-05-10T21:29:34.898Z,48.00
2023-05-10T21:32:02.095Z,47.57
2023-05-10T21:34:29.601Z,47.15
2023-05-10T21:36:56.727Z,47.62
2023-05-10T21:39:23.917Z,47.20
2023-05-10T21:41:51.070Z,47.49
2023-05-10T21:44:18.196Z,46.76
2023-05-10T21:46:45.496Z,45.14
2023-05-10T21:49:12.582Z,44.76
2023-05-10T21:51:39.728Z,46.70
2023-05-10T21:54:06.961Z,43.44
2023-05-10T21:56:34.063Z,47.33
2023-05-10T21:59:01.188Z,49.29
2023-05-10T22:01:28.374Z,47.82
2023-05-10T22:03:55.679Z,47.69
2023-05-10T22:06:22.740Z,46.44
2023-05-10T22:08:49.803Z,47.55
2023-05-10T22:11:16.868Z,46.76
2023-05-10T22:13:44.015Z,45.07
2023-05-10T22:16:11.244Z,46.19
2023-05-10T22:18:38.687Z,45.35
2023-05-10T22:21:05.829Z,45.03
2023-05-10T22:23:33.045Z,45.48
2023-05-10T22:26:02.682Z,45.94
2023-05-10T22:28:30.479Z,45.53
2023-05-10T22:30:57.653Z,45.27
2023-05-10T22:33:24.762Z,46.16
2023-05-10T22:35:52.382Z,46.76
2023-05-10T22:38:19.603Z,47.55
2023-05-10T22:40:46.712Z,48.39
2023-05-10T22:43:13.795Z,48.71
2023-05-10T22:45:40.867Z,48.46
2023-05-10T22:48:09.507Z,48.41
2023-05-10T22:50:37.194Z,47.98
2023-05-10T22:53:04.348Z,48.35
2023-05-10T22:55:31.471Z,49.44
2023-05-10T22:57:58.903Z,51.45
2023-05-10T23:00:26.419Z,51.46
2023-05-10T23:02:54.512Z,52.11
2023-05-10T23:05:21.790Z,53.32
2023-05-10T23:07:53.239Z,53.61
2023-05-10T23:10:20.968Z,54.34
2023-05-10T23:12:48.240Z,52.69
2023-05-10T23:15:15.565Z,50.88
2023-05-10T23:17:43.635Z,49.90
2023-05-10T23:20:11.680Z,49.16
2023-05-10T23:22:38.832Z,47.96
2023-05-10T23:25:06.395Z,47.34
2023-05-10T23:27:33.693Z,46.70
2023-05-10T23:30:00.811Z,46.36
2023-05-10T23:32:27.974Z,48.09
2023-05-10T23:34:55.071Z,47.30
2023-05-10T23:37:22.159Z,47.78
2023-05-10T23:39:49.307Z,47.54
2023-05-10T23:42:16.563Z,46.88
2023-05-10T23:44:43.732Z,47.25
2023-05-10T23:47:10.815Z,48.65
2023-05-10T23:49:38.250Z,48.20
2023-05-10T23:52:05.347Z,47.98
2023-05-10T23:54:32.374Z,49.94
2023-05-10T23:56:59.579Z,46.66
2023-05-10T23:59:27.081Z,51.53
